Terminal Aerodrome Forecast
Issued by NWS

Home | Current Version | Previous Version | Text Only | Print | Product List | Glossary On
Versions: 1 2 3 4 5 6 7 8 9 10 11 12 13
000
FTUS43 KBIS 271139
TAFDIK
TAF
KDIK 271139Z 2712/2812 14008KT P6SM FEW080 SCT250
     FM271600 16012KT P6SM FEW070 FEW200
     FM272300 17014KT P6SM VCTS BKN100CB
     FM280200 17008KT P6SM BKN100
     FM281000 16008KT P6SM VCTS BKN050CB OVC090=

USA.gov is the U.S. government's official web portal to all federal, state and local government web resources and services.